Tuesday, June 28, 2016
16:51 UTC
  |  Log In   |  Register Free
Airport Search:

Seattle-Tacoma International Airport
(KSEA)

FAA data valid effective May 26 2016 - Jul 21 2016 (unless otherwise noted).

 
 
 
 
 
 
 
 
 
 
 
 
 
 
Current Aviation Weather for KSEA

Weather Summary


The most recent METAR observation for SEA was updated at: 13:07 UTC
METAR for KSEA is not available. Closest METAR is for KRNT
KSEA  (most recent observation was updatred at 28:15 UTC)
281553Z VRB04KT 10SM OVC008 14/12 A3024 RMK AO2 SLP243 T01390117

KRNT  (4.6 nm SW)   (most recent observation was updated at 28:15 UTC)
281553Z 00000KT 7SM OVC015 15/11 A3022 RMK AO2 SLP239 T01500111 $

KBFI  (4.9 nm SW)   (most recent observation was updated at 28:15 UTC)
281553Z 24004KT 10SM OVC013 15/12 A3023 RMK AO2 SLP236 T01500122

TAF for KSEA is not available.
KSEA
AMD 281506Z 2815/2918 21006KT P6SM OVC007 FM281700 23005KT P6SM BKN010 TEMPO 2817/2820 SCT015 FM282000 25006KT P6SM FEW020 SCT250 FM282200 30005KT P6SM SKC FM291100 20006KT P6SM BKN010

KBFI  (4.9 nm SW)   (most recent observation was updatred at 28:13 UTC)
AMD 281310Z 2813/2912 20004KT P6SM OVC009 FM281700 20005KT P6SM BKN014 FM281900 28005KT P6SM SCT250 FM282000 28005KT P6SM SKC


KTCM  (19.9 nm NE)   (most recent observation was updatred at 28:14 UTC)
AMD 281437Z 2814/2919 20004KT 9999 BKN010 QNH3019INS TEMPO 2816/2819 SCT010 BECMG 2818/2819 32009KT 9999 FEW030 QNH3012INS BECMG 2910/2911 20004KT 9999 BKN010 QNH3017INS BECMG 2916/2917 30006KT 9999 SCT030 QNH3015INS TX24/2823Z TN12/2912Z
GlobalAir.com is loading additional information.
 Current Weather at SEA
56.0 F° (13.3 C°)

Southwest winds at 6.9 mph
Pressure:
30.23 in
Humidity:
93%
Wind:
Southwest at 6.9 mph
Dew Point:
54.0 F° (12.2 C°)
Visibility:
10.00 mi
SEA NOAA Radar




Find All Airport Services Find A Hotel Find A Rental Car Find A Golf Course Find A Restaurant $100 Hamburger



Airport Weather Forecast for KSEA

Translated METAR for KSEA (1553 UTC)
METAR:
KSEA 281553Z VRB04KT 10SM OVC008 14/12 A3024 RMK AO2 SLP243 T01390117
Conditions at:
KSEA (Seattle-Tacoma Intl, WA) observed 1553 UTC 28 June 2016
Temperature:
14°C (57.2°F)
Dewpoint:
12°C (53.6°F) [RH = 87.7]
Pressure:
30.24 inches Hg (1024 mb)
pressure at sea level is 243 in Hg
Winds:
variable wind direction at 4.6 mph (4 knots: 2.1 m/s)
Visibility:
10 mile(s)
Ceiling:
800 feet AGL
Clouds:
Overcast Skies at 800 feet AGL
Remarks:
site is automated and HAS a precipitation sensor

Translated TAF for KSEA (Seattle-Tacoma Intl, WA) (1506 UTC)
TAF text:
KSEA 281506Z 2815/2918 21006KT P6SM OVC007
Forecast period:
Tuesday Jun 28 2016 15:00 UTC - Wednesday Jun 29 2016 18:00 UTC
Forecast type:
FROM: standard forecast or significant change
Winds:
from the SSW (210 degrees) at 6.9 mph (6 knots: 3.1 m/s)
Visibility:
6 or more mile(s) (9.7+ km)
Ceiling:
700 feet AGL
Clouds:
Overcast Skies at 700 feet AGL
Weather:
no significant weather observed at this time
TAF text:
FM281700 23005KT P6SM BKN010
Forecast period:
Tuesday Jun 28 2016 17:00 UTC - Tuesday Jun 28 2016 20:00 UTC
Forecast type:
FROM: standard forecast or significant change
Winds:
from the SW (230 degrees) at 5.8 mph (5 knots: 2.6 m/s)
Visibility:
6 or more mile(s) (9.7+ km)
Ceiling:
1,000 feet AGL
Clouds:
Broken Cloud Cover at 1,000 feet AGL
Weather:
no significant weather observed at this time
TAF text:
2817/2820 SCT015
Forecast period:
Wednesday Jun 29 2016 17:00 UTC - Wednesday Jun 29 2016 20:00 UTC
Forecast type:
FROM: standard forecast or significant change
Winds:
Visibility:
Ceiling:
at least 12,000 feet AGL
Clouds:
Scattered Clouds at 1,500 feet AGL
Weather:
no significant weather observed at this time
TAF text:
FM282000 25006KT P6SM FEW020 SCT250
Forecast period:
Tuesday Jun 28 2016 20:00 UTC - Tuesday Jun 28 2016 22:00 UTC
Forecast type:
FROM: standard forecast or significant change
Winds:
from the WSW (250 degrees) at 6.9 mph (6 knots: 3.1 m/s)
Visibility:
6 or more mile(s) (9.7+ km)
Ceiling:
at least 12,000 feet AGL
Clouds:
Few Clouds at 2,000 feet AGL
Scattered Clouds at 25,000 feet AGL
Weather:
no significant weather observed at this time
TAF text:
FM282200 30005KT P6SM SKC
Forecast period:
Tuesday Jun 28 2016 22:00 UTC - Wednesday Jun 29 2016 11:00 UTC
Forecast type:
FROM: standard forecast or significant change
Winds:
from the WNW (300 degrees) at 5.8 mph (5 knots: 2.6 m/s)
Visibility:
6 or more mile(s) (9.7+ km)
Ceiling:
at least 12,000 feet AGL
Clouds:
Clear Skies
Weather:
no significant weather observed at this time
TAF text:
FM291100 20006KT P6SM BKN010
Forecast period:
Wednesday Jun 29 2016 11:00 UTC - Wednesday Jun 29 2016 18:00 UTC
Forecast type:
FROM: standard forecast or significant change
Winds:
from the SSW (200 degrees) at 6.9 mph (6 knots: 3.1 m/s)
Visibility:
6 or more mile(s) (9.7+ km)
Ceiling:
1,000 feet AGL
Clouds:
Broken Cloud Cover at 1,000 feet AGL
Weather:
no significant weather observed at this time
FBO's on the Field
FBO Company Facility Photos Services Transportation Aviation Fuel Prices: Prices include tax
Catering Weather Repair Courtesy Rental Type 100LL JetA JetA+ MOGAS 8087
 
Aircraft Service Intl.

This FBO has not yet been rated
FS:Independent
Last Updated: Jun-03
Login to update fuel prices
SS:
Contact Aircraft Service Intl.More FBO Information
 
Add another FBO Facility Photos Catering Weather Repair Courtesy Rental Type 100LL JetA JetA+ MOGAS 8087
Services Transportation Aviation Fuel Prices: Prices include tax


model-print
model-print
model-print
model-print